sensor_id;sensor_type;location;lat;lon;timestamp;temperature;humidity
7362;DHT22;3721;44.490;11.220;2022-12-17T00:01:49;8.90;99.20
7362;DHT22;3721;44.490;11.220;2022-12-17T00:04:33;9.00;99.30
7362;DHT22;3721;44.490;11.220;2022-12-17T00:07:17;9.10;99.40
7362;DHT22;3721;44.490;11.220;2022-12-17T00:10:01;9.10;99.40
7362;DHT22;3721;44.490;11.220;2022-12-17T00:12:46;9.20;99.50
7362;DHT22;3721;44.490;11.220;2022-12-17T00:15:30;9.20;99.40
7362;DHT22;3721;44.490;11.220;2022-12-17T00:18:14;9.30;99.40
7362;DHT22;3721;44.490;11.220;2022-12-17T00:20:59;9.30;99.40
7362;DHT22;3721;44.490;11.220;2022-12-17T00:23:44;9.30;99.40
7362;DHT22;3721;44.490;11.220;2022-12-17T00:26:29;9.30;99.40
7362;DHT22;3721;44.490;11.220;2022-12-17T00:29:14;9.40;99.50
7362;DHT22;3721;44.490;11.220;2022-12-17T00:31:58;9.40;99.40
7362;DHT22;3721;44.490;11.220;2022-12-17T00:34:43;9.30;99.40
7362;DHT22;3721;44.490;11.220;2022-12-17T00:37:27;9.30;99.40
7362;DHT22;3721;44.490;11.220;2022-12-17T00:40:11;9.30;99.30
7362;DHT22;3721;44.490;11.220;2022-12-17T00:43:08;9.30;99.20
7362;DHT22;3721;44.490;11.220;2022-12-17T00:45:53;9.30;99.10
7362;DHT22;3721;44.490;11.220;2022-12-17T00:48:37;9.20;99.00
7362;DHT22;3721;44.490;11.220;2022-12-17T00:51:21;9.20;99.10
7362;DHT22;3721;44.490;11.220;2022-12-17T00:54:06;9.20;99.10
7362;DHT22;3721;44.490;11.220;2022-12-17T00:56:50;9.10;99.10
7362;DHT22;3721;44.490;11.220;2022-12-17T00:59:35;9.20;99.20
7362;DHT22;3721;44.490;11.220;2022-12-17T01:02:19;9.20;99.30
7362;DHT22;3721;44.490;11.220;2022-12-17T01:05:03;9.20;99.20
7362;DHT22;3721;44.490;11.220;2022-12-17T01:07:47;9.20;99.30
7362;DHT22;3721;44.490;11.220;2022-12-17T01:10:32;9.30;99.40
7362;DHT22;3721;44.490;11.220;2022-12-17T01:13:17;9.30;99.30
7362;DHT22;3721;44.490;11.220;2022-12-17T01:16:07;9.30;99.30
7362;DHT22;3721;44.490;11.220;2022-12-17T01:18:52;9.30;99.30
7362;DHT22;3721;44.490;11.220;2022-12-17T01:21:36;9.30;99.30
7362;DHT22;3721;44.490;11.220;2022-12-17T01:24:21;9.30;99.20
7362;DHT22;3721;44.490;11.220;2022-12-17T01:27:05;9.30;99.20
7362;DHT22;3721;44.490;11.220;2022-12-17T01:29:50;9.30;99.20
7362;DHT22;3721;44.490;11.220;2022-12-17T01:32:34;9.40;99.30
7362;DHT22;3721;44.490;11.220;2022-12-17T01:35:18;9.40;99.30
7362;DHT22;3721;44.490;11.220;2022-12-17T01:38:02;9.40;99.30
7362;DHT22;3721;44.490;11.220;2022-12-17T01:40:52;9.40;99.30
7362;DHT22;3721;44.490;11.220;2022-12-17T01:43:37;9.40;99.30
7362;DHT22;3721;44.490;11.220;2022-12-17T01:46:23;9.50;99.40
7362;DHT22;3721;44.490;11.220;2022-12-17T01:49:09;9.50;99.30
7362;DHT22;3721;44.490;11.220;2022-12-17T01:51:54;9.50;99.30
7362;DHT22;3721;44.490;11.220;2022-12-17T01:54:39;9.60;99.20
7362;DHT22;3721;44.490;11.220;2022-12-17T01:57:24;9.60;99.20
7362;DHT22;3721;44.490;11.220;2022-12-17T02:00:11;9.60;99.10
7362;DHT22;3721;44.490;11.220;2022-12-17T02:02:57;9.50;99.00
7362;DHT22;3721;44.490;11.220;2022-12-17T02:05:56;9.50;98.90
7362;DHT22;3721;44.490;11.220;2022-12-17T02:09:14;9.50;98.70
7362;DHT22;3721;44.490;11.220;2022-12-17T02:12:11;9.50;98.70
7362;DHT22;3721;44.490;11.220;2022-12-17T02:17:58;9.40;98.70
7362;DHT22;3721;44.490;11.220;2022-12-17T02:20:49;9.40;98.80
7362;DHT22;3721;44.490;11.220;2022-12-17T02:26:52;9.40;99.00
7362;DHT22;3721;44.490;11.220;2022-12-17T02:29:43;9.40;99.10
7362;DHT22;3721;44.490;11.220;2022-12-17T02:32:29;9.50;99.20
7362;DHT22;3721;44.490;11.220;2022-12-17T02:35:19;9.50;99.20
7362;DHT22;3721;44.490;11.220;2022-12-17T02:38:21;9.50;99.10
7362;DHT22;3721;44.490;11.220;2022-12-17T02:41:06;9.50;99.00
7362;DHT22;3721;44.490;11.220;2022-12-17T02:43:53;9.40;98.90
7362;DHT22;3721;44.490;11.220;2022-12-17T02:46:40;9.40;98.90
7362;DHT22;3721;44.490;11.220;2022-12-17T02:49:24;9.40;98.90
7362;DHT22;3721;44.490;11.220;2022-12-17T02:52:09;9.40;98.90
7362;DHT22;3721;44.490;11.220;2022-12-17T02:54:59;9.50;98.90
7362;DHT22;3721;44.490;11.220;2022-12-17T02:57:43;9.40;98.80
7362;DHT22;3721;44.490;11.220;2022-12-17T03:00:27;9.40;98.80
7362;DHT22;3721;44.490;11.220;2022-12-17T03:03:12;9.40;98.80
7362;DHT22;3721;44.490;11.220;2022-12-17T03:05:57;9.40;98.90
7362;DHT22;3721;44.490;11.220;2022-12-17T03:08:42;9.40;98.90
7362;DHT22;3721;44.490;11.220;2022-12-17T03:11:29;9.50;98.80
7362;DHT22;3721;44.490;11.220;2022-12-17T03:14:14;9.50;98.70
7362;DHT22;3721;44.490;11.220;2022-12-17T03:16:58;9.50;98.70
7362;DHT22;3721;44.490;11.220;2022-12-17T03:19:42;9.60;98.80
7362;DHT22;3721;44.490;11.220;2022-12-17T03:22:27;9.60;98.70
7362;DHT22;3721;44.490;11.220;2022-12-17T03:25:11;9.60;98.80
7362;DHT22;3721;44.490;11.220;2022-12-17T03:27:55;9.60;98.80
7362;DHT22;3721;44.490;11.220;2022-12-17T03:30:39;9.60;98.80
7362;DHT22;3721;44.490;11.220;2022-12-17T03:33:23;9.60;98.80
7362;DHT22;3721;44.490;11.220;2022-12-17T03:36:07;9.70;98.80
7362;DHT22;3721;44.490;11.220;2022-12-17T03:38:51;9.70;98.80
7362;DHT22;3721;44.490;11.220;2022-12-17T03:41:36;9.70;98.80
7362;DHT22;3721;44.490;11.220;2022-12-17T03:44:20;9.70;98.80
7362;DHT22;3721;44.490;11.220;2022-12-17T03:47:04;9.70;98.80
7362;DHT22;3721;44.490;11.220;2022-12-17T03:49:48;9.70;98.80
7362;DHT22;3721;44.490;11.220;2022-12-17T03:52:32;9.70;98.80
7362;DHT22;3721;44.490;11.220;2022-12-17T03:55:16;9.70;98.80
7362;DHT22;3721;44.490;11.220;2022-12-17T03:58:00;9.80;98.80
7362;DHT22;3721;44.490;11.220;2022-12-17T04:00:44;9.80;98.80
7362;DHT22;3721;44.490;11.220;2022-12-17T04:03:28;9.80;98.80
7362;DHT22;3721;44.490;11.220;2022-12-17T04:06:12;9.70;98.80
7362;DHT22;3721;44.490;11.220;2022-12-17T04:08:57;9.70;98.90
7362;DHT22;3721;44.490;11.220;2022-12-17T04:11:41;9.70;98.90
7362;DHT22;3721;44.490;11.220;2022-12-17T04:14:25;9.70;99.00
7362;DHT22;3721;44.490;11.220;2022-12-17T04:17:09;9.70;99.00
7362;DHT22;3721;44.490;11.220;2022-12-17T04:19:53;9.70;99.00
7362;DHT22;3721;44.490;11.220;2022-12-17T04:22:37;9.70;98.90
7362;DHT22;3721;44.490;11.220;2022-12-17T04:25:21;9.70;98.90
7362;DHT22;3721;44.490;11.220;2022-12-17T04:28:05;9.60;98.90
7362;DHT22;3721;44.490;11.220;2022-12-17T04:30:49;9.70;98.90
7362;DHT22;3721;44.490;11.220;2022-12-17T04:33:33;9.70;98.90
7362;DHT22;3721;44.490;11.220;2022-12-17T04:36:17;9.60;98.80
7362;DHT22;3721;44.490;11.220;2022-12-17T04:39:01;9.60;98.80
7362;DHT22;3721;44.490;11.220;2022-12-17T04:41:45;9.60;99.00
7362;DHT22;3721;44.490;11.220;2022-12-17T04:44:29;9.60;99.00
7362;DHT22;3721;44.490;11.220;2022-12-17T04:47:13;9.70;99.00
7362;DHT22;3721;44.490;11.220;2022-12-17T04:49:58;9.60;98.90
7362;DHT22;3721;44.490;11.220;2022-12-17T04:52:42;9.60;98.90
7362;DHT22;3721;44.490;11.220;2022-12-17T04:55:26;9.60;98.80
7362;DHT22;3721;44.490;11.220;2022-12-17T04:58:10;9.60;98.80
7362;DHT22;3721;44.490;11.220;2022-12-17T05:00:54;9.50;98.80
7362;DHT22;3721;44.490;11.220;2022-12-17T05:03:38;9.50;98.70
7362;DHT22;3721;44.490;11.220;2022-12-17T05:06:23;9.40;98.60
7362;DHT22;3721;44.490;11.220;2022-12-17T05:09:08;9.40;98.60
7362;DHT22;3721;44.490;11.220;2022-12-17T05:11:52;9.40;98.70
7362;DHT22;3721;44.490;11.220;2022-12-17T05:14:36;9.30;98.70
7362;DHT22;3721;44.490;11.220;2022-12-17T05:17:20;9.30;98.60
7362;DHT22;3721;44.490;11.220;2022-12-17T05:20:04;9.30;98.70
7362;DHT22;3721;44.490;11.220;2022-12-17T05:22:49;9.20;98.80
7362;DHT22;3721;44.490;11.220;2022-12-17T05:25:33;9.30;98.90
7362;DHT22;3721;44.490;11.220;2022-12-17T05:28:17;9.30;99.00
7362;DHT22;3721;44.490;11.220;2022-12-17T05:31:01;9.20;99.00
7362;DHT22;3721;44.490;11.220;2022-12-17T05:33:45;9.20;99.00
7362;DHT22;3721;44.490;11.220;2022-12-17T05:36:29;9.20;99.20
7362;DHT22;3721;44.490;11.220;2022-12-17T05:39:13;9.30;99.20
7362;DHT22;3721;44.490;11.220;2022-12-17T05:41:57;9.30;99.20
7362;DHT22;3721;44.490;11.220;2022-12-17T05:44:41;9.40;99.30
7362;DHT22;3721;44.490;11.220;2022-12-17T05:47:25;9.40;99.40
7362;DHT22;3721;44.490;11.220;2022-12-17T05:50:09;9.40;99.30
7362;DHT22;3721;44.490;11.220;2022-12-17T05:53:00;9.50;99.30
7362;DHT22;3721;44.490;11.220;2022-12-17T05:55:50;9.50;99.30
7362;DHT22;3721;44.490;11.220;2022-12-17T05:58:35;9.60;99.20
7362;DHT22;3721;44.490;11.220;2022-12-17T06:01:19;9.60;99.20
7362;DHT22;3721;44.490;11.220;2022-12-17T06:04:03;9.60;99.20
7362;DHT22;3721;44.490;11.220;2022-12-17T06:06:47;9.70;99.30
7362;DHT22;3721;44.490;11.220;2022-12-17T06:09:31;9.70;99.30
7362;DHT22;3721;44.490;11.220;2022-12-17T06:12:15;9.70;99.30
7362;DHT22;3721;44.490;11.220;2022-12-17T06:14:59;9.70;99.40
7362;DHT22;3721;44.490;11.220;2022-12-17T06:17:54;9.70;99.40
7362;DHT22;3721;44.490;11.220;2022-12-17T06:20:39;9.70;99.50
7362;DHT22;3721;44.490;11.220;2022-12-17T06:23:23;9.70;99.60
7362;DHT22;3721;44.490;11.220;2022-12-17T06:26:08;9.80;99.60
7362;DHT22;3721;44.490;11.220;2022-12-17T06:28:52;9.80;99.60
7362;DHT22;3721;44.490;11.220;2022-12-17T06:31:36;9.90;99.60
7362;DHT22;3721;44.490;11.220;2022-12-17T06:34:20;9.90;99.50
7362;DHT22;3721;44.490;11.220;2022-12-17T06:37:04;9.90;99.50
7362;DHT22;3721;44.490;11.220;2022-12-17T06:39:48;9.90;99.50
7362;DHT22;3721;44.490;11.220;2022-12-17T06:42:32;9.90;99.50
7362;DHT22;3721;44.490;11.220;2022-12-17T06:45:17;9.90;99.50
7362;DHT22;3721;44.490;11.220;2022-12-17T06:48:06;10.00;99.00
7362;DHT22;3721;44.490;11.220;2022-12-17T06:50:54;10.00;99.00
7362;DHT22;3721;44.490;11.220;2022-12-17T06:53:39;10.00;98.90
7362;DHT22;3721;44.490;11.220;2022-12-17T06:56:23;9.90;99.40
7362;DHT22;3721;44.490;11.220;2022-12-17T06:59:07;9.90;99.40
7362;DHT22;3721;44.490;11.220;2022-12-17T07:01:51;10.00;99.10
7362;DHT22;3721;44.490;11.220;2022-12-17T07:04:35;10.00;99.10
7362;DHT22;3721;44.490;11.220;2022-12-17T07:07:19;10.00;99.10
7362;DHT22;3721;44.490;11.220;2022-12-17T07:10:04;10.00;99.10
7362;DHT22;3721;44.490;11.220;2022-12-17T07:12:48;10.00;99.10
7362;DHT22;3721;44.490;11.220;2022-12-17T07:15:32;10.10;99.10
7362;DHT22;3721;44.490;11.220;2022-12-17T07:18:16;10.10;99.10
7362;DHT22;3721;44.490;11.220;2022-12-17T07:21:00;10.10;99.10
7362;DHT22;3721;44.490;11.220;2022-12-17T07:23:44;10.10;99.10
7362;DHT22;3721;44.490;11.220;2022-12-17T07:26:29;10.20;99.10
7362;DHT22;3721;44.490;11.220;2022-12-17T07:29:13;10.20;99.10
7362;DHT22;3721;44.490;11.220;2022-12-17T07:31:58;10.20;99.10
7362;DHT22;3721;44.490;11.220;2022-12-17T07:34:42;10.30;99.10
7362;DHT22;3721;44.490;11.220;2022-12-17T07:37:26;10.30;99.20
7362;DHT22;3721;44.490;11.220;2022-12-17T07:40:10;10.30;99.30
7362;DHT22;3721;44.490;11.220;2022-12-17T07:42:54;10.30;99.40
7362;DHT22;3721;44.490;11.220;2022-12-17T07:45:38;10.30;99.40
7362;DHT22;3721;44.490;11.220;2022-12-17T07:48:22;10.30;99.50
7362;DHT22;3721;44.490;11.220;2022-12-17T07:51:06;10.30;99.50
7362;DHT22;3721;44.490;11.220;2022-12-17T07:53:51;10.40;99.60
7362;DHT22;3721;44.490;11.220;2022-12-17T07:56:35;10.40;99.60
7362;DHT22;3721;44.490;11.220;2022-12-17T07:59:19;10.50;99.70
7362;DHT22;3721;44.490;11.220;2022-12-17T08:02:03;10.50;99.70
7362;DHT22;3721;44.490;11.220;2022-12-17T08:04:47;10.60;99.80
7362;DHT22;3721;44.490;11.220;2022-12-17T08:07:31;10.60;99.80
7362;DHT22;3721;44.490;11.220;2022-12-17T08:10:15;10.60;99.80
7362;DHT22;3721;44.490;11.220;2022-12-17T08:13:03;10.70;99.80
7362;DHT22;3721;44.490;11.220;2022-12-17T08:15:50;10.80;99.80
7362;DHT22;3721;44.490;11.220;2022-12-17T08:18:35;10.80;99.70
7362;DHT22;3721;44.490;11.220;2022-12-17T08:21:19;10.80;99.70
7362;DHT22;3721;44.490;11.220;2022-12-17T08:24:03;10.90;99.70
7362;DHT22;3721;44.490;11.220;2022-12-17T08:26:47;10.90;99.70
7362;DHT22;3721;44.490;11.220;2022-12-17T08:29:31;11.00;99.70
7362;DHT22;3721;44.490;11.220;2022-12-17T08:32:16;11.10;99.70
7362;DHT22;3721;44.490;11.220;2022-12-17T08:35:00;11.10;99.60
7362;DHT22;3721;44.490;11.220;2022-12-17T08:37:44;11.10;99.50
7362;DHT22;3721;44.490;11.220;2022-12-17T08:40:28;11.10;99.60
7362;DHT22;3721;44.490;11.220;2022-12-17T08:43:12;11.20;99.60
7362;DHT22;3721;44.490;11.220;2022-12-17T08:45:56;11.20;99.40
7362;DHT22;3721;44.490;11.220;2022-12-17T08:48:41;11.20;99.30
7362;DHT22;3721;44.490;11.220;2022-12-17T08:51:25;11.20;99.40
7362;DHT22;3721;44.490;11.220;2022-12-17T08:54:09;11.20;99.30
7362;DHT22;3721;44.490;11.220;2022-12-17T08:56:53;11.10;99.10
7362;DHT22;3721;44.490;11.220;2022-12-17T08:59:38;11.10;99.30
7362;DHT22;3721;44.490;11.220;2022-12-17T09:02:22;11.10;98.90
7362;DHT22;3721;44.490;11.220;2022-12-17T09:05:06;11.00;98.90
7362;DHT22;3721;44.490;11.220;2022-12-17T09:08:01;11.00;99.00
7362;DHT22;3721;44.490;11.220;2022-12-17T09:10:46;11.10;99.00
7362;DHT22;3721;44.490;11.220;2022-12-17T09:13:30;11.10;99.00
7362;DHT22;3721;44.490;11.220;2022-12-17T09:16:15;11.10;99.00
7362;DHT22;3721;44.490;11.220;2022-12-17T09:18:59;11.20;99.10
7362;DHT22;3721;44.490;11.220;2022-12-17T09:21:43;11.20;99.20
7362;DHT22;3721;44.490;11.220;2022-12-17T09:24:27;11.30;99.20
7362;DHT22;3721;44.490;11.220;2022-12-17T09:27:11;11.40;99.10
7362;DHT22;3721;44.490;11.220;2022-12-17T09:29:55;11.40;99.00
7362;DHT22;3721;44.490;11.220;2022-12-17T09:32:39;11.40;99.10
7362;DHT22;3721;44.490;11.220;2022-12-17T09:35:23;11.50;99.10
7362;DHT22;3721;44.490;11.220;2022-12-17T09:38:11;11.60;99.00
7362;DHT22;3721;44.490;11.220;2022-12-17T09:41:04;11.60;98.90
7362;DHT22;3721;44.490;11.220;2022-12-17T09:44:00;11.60;99.00
7362;DHT22;3721;44.490;11.220;2022-12-17T09:46:57;11.60;98.90
7362;DHT22;3721;44.490;11.220;2022-12-17T09:49:43;11.60;98.90
7362;DHT22;3721;44.490;11.220;2022-12-17T09:52:39;11.60;99.00
7362;DHT22;3721;44.490;11.220;2022-12-17T09:55:32;11.70;98.90
7362;DHT22;3721;44.490;11.220;2022-12-17T09:58:22;11.60;98.90
7362;DHT22;3721;44.490;11.220;2022-12-17T10:01:31;11.60;98.90
7362;DHT22;3721;44.490;11.220;2022-12-17T10:04:20;11.70;99.00
7362;DHT22;3721;44.490;11.220;2022-12-17T10:07:12;11.70;99.00
7362;DHT22;3721;44.490;11.220;2022-12-17T10:10:00;11.70;98.80
7362;DHT22;3721;44.490;11.220;2022-12-17T10:12:45;11.70;98.80
7362;DHT22;3721;44.490;11.220;2022-12-17T10:15:29;11.70;98.70
7362;DHT22;3721;44.490;11.220;2022-12-17T10:18:15;11.70;98.80
7362;DHT22;3721;44.490;11.220;2022-12-17T10:21:06;11.70;98.90
7362;DHT22;3721;44.490;11.220;2022-12-17T10:23:49;11.60;98.80
7362;DHT22;3721;44.490;11.220;2022-12-17T10:26:34;11.70;99.10
7362;DHT22;3721;44.490;11.220;2022-12-17T10:29:24;11.70;99.00
7362;DHT22;3721;44.490;11.220;2022-12-17T10:35:19;11.70;98.90
7362;DHT22;3721;44.490;11.220;2022-12-17T10:38:36;11.80;99.10
7362;DHT22;3721;44.490;11.220;2022-12-17T10:41:26;11.90;99.10
7362;DHT22;3721;44.490;11.220;2022-12-17T10:47:17;12.00;99.00
7362;DHT22;3721;44.490;11.220;2022-12-17T10:50:10;12.00;99.00
7362;DHT22;3721;44.490;11.220;2022-12-17T10:52:55;12.00;98.90
7362;DHT22;3721;44.490;11.220;2022-12-17T10:55:51;12.10;99.00
7362;DHT22;3721;44.490;11.220;2022-12-17T10:58:43;12.10;99.00
7362;DHT22;3721;44.490;11.220;2022-12-17T11:01:28;12.20;99.00
7362;DHT22;3721;44.490;11.220;2022-12-17T11:04:30;12.30;99.20
7362;DHT22;3721;44.490;11.220;2022-12-17T11:07:37;12.40;99.10
7362;DHT22;3721;44.490;11.220;2022-12-17T11:10:28;12.50;98.90
7362;DHT22;3721;44.490;11.220;2022-12-17T11:13:35;12.50;98.70
7362;DHT22;3721;44.490;11.220;2022-12-17T11:16:41;12.60;98.60
7362;DHT22;3721;44.490;11.220;2022-12-17T11:19:39;12.60;98.30
7362;DHT22;3721;44.490;11.220;2022-12-17T11:22:38;12.60;98.40
7362;DHT22;3721;44.490;11.220;2022-12-17T11:25:39;12.60;98.30
7362;DHT22;3721;44.490;11.220;2022-12-17T11:28:28;12.50;98.20
7362;DHT22;3721;44.490;11.220;2022-12-17T11:37:21;12.60;98.30
7362;DHT22;3721;44.490;11.220;2022-12-17T11:40:44;12.60;98.30
7362;DHT22;3721;44.490;11.220;2022-12-17T11:43:35;12.50;98.10
7362;DHT22;3721;44.490;11.220;2022-12-17T11:49:39;12.50;98.20
7362;DHT22;3721;44.490;11.220;2022-12-17T11:58:21;12.40;98.30
7362;DHT22;3721;44.490;11.220;2022-12-17T12:01:35;12.30;98.20
7362;DHT22;3721;44.490;11.220;2022-12-17T12:11:04;12.30;98.20
7362;DHT22;3721;44.490;11.220;2022-12-17T12:14:10;12.30;98.20
7362;DHT22;3721;44.490;11.220;2022-12-17T12:20:02;12.30;98.00
7362;DHT22;3721;44.490;11.220;2022-12-17T12:34:16;12.40;97.80
7362;DHT22;3721;44.490;11.220;2022-12-17T12:37:02;12.50;97.90
7362;DHT22;3721;44.490;11.220;2022-12-17T12:42:44;12.60;97.90
7362;DHT22;3721;44.490;11.220;2022-12-17T12:45:32;12.60;97.80
7362;DHT22;3721;44.490;11.220;2022-12-17T12:48:36;12.60;97.80
7362;DHT22;3721;44.490;11.220;2022-12-17T12:51:23;12.70;97.80
7362;DHT22;3721;44.490;11.220;2022-12-17T12:54:48;12.70;97.80
7362;DHT22;3721;44.490;11.220;2022-12-17T13:11:48;12.90;97.50
7362;DHT22;3721;44.490;11.220;2022-12-17T13:14:21;12.90;97.40
7362;DHT22;3721;44.490;11.220;2022-12-17T13:16:58;12.90;97.40
7362;DHT22;3721;44.490;11.220;2022-12-17T13:24:47;13.10;97.30
7362;DHT22;3721;44.490;11.220;2022-12-17T13:30:36;13.10;96.90
7362;DHT22;3721;44.490;11.220;2022-12-17T13:41:32;12.90;96.90
7362;DHT22;3721;44.490;11.220;2022-12-17T13:44:02;12.90;96.60
7362;DHT22;3721;44.490;11.220;2022-12-17T13:46:39;12.90;96.50
7362;DHT22;3721;44.490;11.220;2022-12-17T13:49:16;12.90;96.40
7362;DHT22;3721;44.490;11.220;2022-12-17T13:51:42;12.90;96.30
7362;DHT22;3721;44.490;11.220;2022-12-17T13:54:15;12.80;96.20
7362;DHT22;3721;44.490;11.220;2022-12-17T13:56:41;12.80;96.30
7362;DHT22;3721;44.490;11.220;2022-12-17T13:59:19;12.80;96.40
7362;DHT22;3721;44.490;11.220;2022-12-17T14:01:47;12.80;96.50
7362;DHT22;3721;44.490;11.220;2022-12-17T14:04:25;12.90;96.50
7362;DHT22;3721;44.490;11.220;2022-12-17T14:06:53;12.90;96.70
7362;DHT22;3721;44.490;11.220;2022-12-17T14:09:21;12.90;96.60
7362;DHT22;3721;44.490;11.220;2022-12-17T14:11:49;12.90;96.50
7362;DHT22;3721;44.490;11.220;2022-12-17T14:14:36;12.90;96.50
7362;DHT22;3721;44.490;11.220;2022-12-17T14:17:02;12.90;96.40
7362;DHT22;3721;44.490;11.220;2022-12-17T14:19:30;12.90;96.40
7362;DHT22;3721;44.490;11.220;2022-12-17T14:21:56;13.00;96.30
7362;DHT22;3721;44.490;11.220;2022-12-17T14:24:23;12.90;96.20
7362;DHT22;3721;44.490;11.220;2022-12-17T14:26:59;12.80;96.20
7362;DHT22;3721;44.490;11.220;2022-12-17T14:29:44;12.80;96.20
7362;DHT22;3721;44.490;11.220;2022-12-17T14:32:43;12.80;96.30
7362;DHT22;3721;44.490;11.220;2022-12-17T14:35:32;12.80;96.50
7362;DHT22;3721;44.490;11.220;2022-12-17T14:37:58;12.80;96.40
7362;DHT22;3721;44.490;11.220;2022-12-17T14:40:24;12.80;96.30
7362;DHT22;3721;44.490;11.220;2022-12-17T14:42:52;12.80;96.50
7362;DHT22;3721;44.490;11.220;2022-12-17T14:45:24;12.80;96.40
7362;DHT22;3721;44.490;11.220;2022-12-17T14:52:52;12.80;96.40
7362;DHT22;3721;44.490;11.220;2022-12-17T14:57:49;12.80;96.20
7362;DHT22;3721;44.490;11.220;2022-12-17T15:00:15;12.70;96.10
7362;DHT22;3721;44.490;11.220;2022-12-17T15:02:42;12.60;96.10
7362;DHT22;3721;44.490;11.220;2022-12-17T15:05:13;12.60;96.20
7362;DHT22;3721;44.490;11.220;2022-12-17T15:07:39;12.50;96.20
7362;DHT22;3721;44.490;11.220;2022-12-17T15:10:18;12.50;96.30
7362;DHT22;3721;44.490;11.220;2022-12-17T15:12:44;12.50;96.30
7362;DHT22;3721;44.490;11.220;2022-12-17T15:15:13;12.50;96.30
7362;DHT22;3721;44.490;11.220;2022-12-17T15:17:39;12.50;96.30
7362;DHT22;3721;44.490;11.220;2022-12-17T15:20:05;12.40;96.30
7362;DHT22;3721;44.490;11.220;2022-12-17T15:22:31;12.40;96.30
7362;DHT22;3721;44.490;11.220;2022-12-17T15:24:57;12.30;96.20
7362;DHT22;3721;44.490;11.220;2022-12-17T15:27:22;12.30;96.30
7362;DHT22;3721;44.490;11.220;2022-12-17T15:29:48;12.20;96.30
7362;DHT22;3721;44.490;11.220;2022-12-17T15:32:19;12.10;96.40
7362;DHT22;3721;44.490;11.220;2022-12-17T15:34:45;12.10;96.50
7362;DHT22;3721;44.490;11.220;2022-12-17T15:37:12;12.00;96.50
7362;DHT22;3721;44.490;11.220;2022-12-17T15:39:38;11.90;96.50
7362;DHT22;3721;44.490;11.220;2022-12-17T15:42:03;11.90;96.50
7362;DHT22;3721;44.490;11.220;2022-12-17T15:44:48;11.80;96.50
7362;DHT22;3721;44.490;11.220;2022-12-17T15:47:13;11.80;96.60
7362;DHT22;3721;44.490;11.220;2022-12-17T15:49:39;11.80;96.90
7362;DHT22;3721;44.490;11.220;2022-12-17T15:52:05;11.80;96.90
7362;DHT22;3721;44.490;11.220;2022-12-17T15:54:30;11.80;97.00
7362;DHT22;3721;44.490;11.220;2022-12-17T15:56:56;11.90;97.10
7362;DHT22;3721;44.490;11.220;2022-12-17T15:59:23;12.00;97.10
7362;DHT22;3721;44.490;11.220;2022-12-17T16:01:48;12.00;97.30
7362;DHT22;3721;44.490;11.220;2022-12-17T16:04:14;12.00;97.00
7362;DHT22;3721;44.490;11.220;2022-12-17T16:06:40;12.00;97.00
7362;DHT22;3721;44.490;11.220;2022-12-17T16:09:05;12.10;97.00
7362;DHT22;3721;44.490;11.220;2022-12-17T16:11:31;12.10;97.10
7362;DHT22;3721;44.490;11.220;2022-12-17T16:13:57;12.20;97.10
7362;DHT22;3721;44.490;11.220;2022-12-17T16:16:23;12.20;97.10
7362;DHT22;3721;44.490;11.220;2022-12-17T16:18:49;12.20;97.10
7362;DHT22;3721;44.490;11.220;2022-12-17T16:21:15;12.20;97.20
7362;DHT22;3721;44.490;11.220;2022-12-17T16:23:40;12.20;97.20
7362;DHT22;3721;44.490;11.220;2022-12-17T16:26:07;12.20;97.10
7362;DHT22;3721;44.490;11.220;2022-12-17T16:28:34;12.20;97.10
7362;DHT22;3721;44.490;11.220;2022-12-17T16:31:05;12.20;97.20
7362;DHT22;3721;44.490;11.220;2022-12-17T16:33:33;12.30;97.10
7362;DHT22;3721;44.490;11.220;2022-12-17T16:35:59;12.30;97.00
7362;DHT22;3721;44.490;11.220;2022-12-17T16:38:25;12.30;97.00
7362;DHT22;3721;44.490;11.220;2022-12-17T16:40:59;12.30;96.90
7362;DHT22;3721;44.490;11.220;2022-12-17T16:43:26;12.30;96.90
7362;DHT22;3721;44.490;11.220;2022-12-17T16:45:53;12.20;96.90
7362;DHT22;3721;44.490;11.220;2022-12-17T16:48:20;12.20;96.90
7362;DHT22;3721;44.490;11.220;2022-12-17T16:50:47;12.20;97.00
7362;DHT22;3721;44.490;11.220;2022-12-17T16:53:13;12.20;96.90
7362;DHT22;3721;44.490;11.220;2022-12-17T16:55:44;12.30;96.90
7362;DHT22;3721;44.490;11.220;2022-12-17T16:58:11;12.20;96.80
7362;DHT22;3721;44.490;11.220;2022-12-17T17:00:36;12.20;96.70
7362;DHT22;3721;44.490;11.220;2022-12-17T17:03:06;12.20;96.70
7362;DHT22;3721;44.490;11.220;2022-12-17T17:05:33;12.10;96.60
7362;DHT22;3721;44.490;11.220;2022-12-17T17:08:00;12.10;96.70
7362;DHT22;3721;44.490;11.220;2022-12-17T17:10:26;12.10;96.90
7362;DHT22;3721;44.490;11.220;2022-12-17T17:12:52;12.10;97.00
7362;DHT22;3721;44.490;11.220;2022-12-17T17:15:18;12.20;96.90
7362;DHT22;3721;44.490;11.220;2022-12-17T17:17:44;12.20;97.00
7362;DHT22;3721;44.490;11.220;2022-12-17T17:20:10;12.20;97.00
7362;DHT22;3721;44.490;11.220;2022-12-17T17:22:36;12.20;97.00
7362;DHT22;3721;44.490;11.220;2022-12-17T17:25:02;12.20;97.00
7362;DHT22;3721;44.490;11.220;2022-12-17T17:27:28;12.20;97.00
7362;DHT22;3721;44.490;11.220;2022-12-17T17:29:53;12.20;96.90
7362;DHT22;3721;44.490;11.220;2022-12-17T17:32:21;12.20;96.90
7362;DHT22;3721;44.490;11.220;2022-12-17T17:34:46;12.20;96.90
7362;DHT22;3721;44.490;11.220;2022-12-17T17:37:12;12.20;96.90
7362;DHT22;3721;44.490;11.220;2022-12-17T17:39:38;12.20;97.00
7362;DHT22;3721;44.490;11.220;2022-12-17T17:42:04;12.20;97.00
7362;DHT22;3721;44.490;11.220;2022-12-17T17:44:29;12.20;97.10
7362;DHT22;3721;44.490;11.220;2022-12-17T17:46:55;12.20;97.20
7362;DHT22;3721;44.490;11.220;2022-12-17T17:49:21;12.30;97.20
7362;DHT22;3721;44.490;11.220;2022-12-17T17:51:46;12.20;97.20
7362;DHT22;3721;44.490;11.220;2022-12-17T17:54:12;12.20;97.30
7362;DHT22;3721;44.490;11.220;2022-12-17T17:56:42;12.20;97.40
7362;DHT22;3721;44.490;11.220;2022-12-17T17:59:13;12.30;97.50
7362;DHT22;3721;44.490;11.220;2022-12-17T18:01:48;12.30;97.50
7362;DHT22;3721;44.490;11.220;2022-12-17T18:04:18;12.30;97.50
7362;DHT22;3721;44.490;11.220;2022-12-17T18:06:45;12.30;97.50
7362;DHT22;3721;44.490;11.220;2022-12-17T18:09:11;12.30;97.50
7362;DHT22;3721;44.490;11.220;2022-12-17T18:11:39;12.30;97.50
7362;DHT22;3721;44.490;11.220;2022-12-17T18:14:07;12.30;97.50
7362;DHT22;3721;44.490;11.220;2022-12-17T18:16:42;12.30;97.50
7362;DHT22;3721;44.490;11.220;2022-12-17T18:21:37;12.30;97.50
7362;DHT22;3721;44.490;11.220;2022-12-17T18:24:08;12.30;97.50
7362;DHT22;3721;44.490;11.220;2022-12-17T18:26:35;12.30;97.40
7362;DHT22;3721;44.490;11.220;2022-12-17T18:29:22;12.20;97.20
7362;DHT22;3721;44.490;11.220;2022-12-17T18:31:49;12.20;97.10
7362;DHT22;3721;44.490;11.220;2022-12-17T18:34:18;12.10;97.20
7362;DHT22;3721;44.490;11.220;2022-12-17T18:36:44;12.10;97.30
7362;DHT22;3721;44.490;11.220;2022-12-17T18:39:19;12.10;97.40
7362;DHT22;3721;44.490;11.220;2022-12-17T18:41:46;12.10;97.50
7362;DHT22;3721;44.490;11.220;2022-12-17T18:44:32;12.10;97.50
7362;DHT22;3721;44.490;11.220;2022-12-17T18:46:58;12.10;97.60
7362;DHT22;3721;44.490;11.220;2022-12-17T18:49:24;12.10;97.60
7362;DHT22;3721;44.490;11.220;2022-12-17T18:51:51;12.10;97.70
7362;DHT22;3721;44.490;11.220;2022-12-17T18:54:22;12.10;97.70